createdAt,value
2019-03-05T00:00:28.026Z,45.52
2019-03-05T00:00:59.236Z,44.18
2019-03-05T00:01:30.411Z,43.90
2019-03-05T00:02:01.657Z,43.28
2019-03-05T00:02:32.816Z,41.92
2019-03-05T00:03:03.999Z,42.30
2019-03-05T00:03:35.154Z,42.00
2019-03-05T00:04:06.321Z,44.80
2019-03-05T00:04:37.509Z,44.80
2019-03-05T00:05:08.671Z,42.95
2019-03-05T00:05:39.855Z,42.75
2019-03-05T00:06:11.068Z,41.13
2019-03-05T00:06:42.280Z,43.08
2019-03-05T00:07:13.984Z,41.00
2019-03-05T00:07:45.142Z,40.92
2019-03-05T00:08:16.317Z,40.63
2019-03-05T00:08:47.479Z,38.98
2019-03-05T00:09:18.804Z,40.30
2019-03-05T00:09:49.960Z,40.23
2019-03-05T00:10:21.123Z,40.78
2019-03-05T00:10:52.299Z,39.42
2019-03-05T00:11:23.460Z,40.48
2019-03-05T00:11:54.751Z,41.50
2019-03-05T00:12:25.917Z,40.50
2019-03-05T00:12:57.093Z,40.50
2019-03-05T00:13:28.268Z,40.33
2019-03-05T00:13:59.473Z,40.58
2019-03-05T00:14:30.675Z,39.90
2019-03-05T00:15:01.864Z,39.42
2019-03-05T00:15:33.055Z,38.40
2019-03-05T00:16:04.217Z,40.48
2019-03-05T00:16:35.382Z,39.25
2019-03-05T00:17:06.586Z,41.30
2019-03-05T00:17:37.746Z,40.43
2019-03-05T00:18:08.910Z,40.65
2019-03-05T00:18:40.073Z,41.02
2019-03-05T00:19:11.309Z,38.95
2019-03-05T00:19:42.576Z,37.85
2019-03-05T00:20:13.752Z,37.28
2019-03-05T00:20:44.921Z,38.98
2019-03-05T00:21:16.099Z,40.03
2019-03-05T00:21:47.285Z,38.98
2019-03-05T00:22:18.483Z,41.15
2019-03-05T00:22:49.653Z,38.50
2019-03-05T00:23:20.850Z,39.15
2019-03-05T00:23:52.031Z,37.03
2019-03-05T00:24:23.221Z,35.83
2019-03-05T00:24:54.402Z,37.80
2019-03-05T00:25:25.613Z,37.75
2019-03-05T00:25:56.780Z,38.05
2019-03-05T00:26:28.000Z,39.67
2019-03-05T00:26:59.226Z,39.27
2019-03-05T00:27:30.449Z,40.30
2019-03-05T00:28:01.660Z,39.23
2019-03-05T00:28:32.860Z,40.67
2019-03-05T00:29:04.072Z,41.25
2019-03-05T00:29:35.284Z,40.90
2019-03-05T00:30:06.526Z,38.58
2019-03-05T00:30:37.734Z,38.13
2019-03-05T00:31:08.917Z,37.20
2019-03-05T00:31:40.112Z,37.25
2019-03-05T00:32:11.316Z,36.45
2019-03-05T00:32:42.534Z,38.38
2019-03-05T00:33:13.779Z,37.25
2019-03-05T00:33:45.007Z,38.42
2019-03-05T00:34:16.242Z,38.05
2019-03-05T00:34:47.456Z,38.08
2019-03-05T00:35:18.663Z,37.48
2019-03-05T00:35:49.883Z,37.20
2019-03-05T00:36:21.076Z,38.20
2019-03-05T00:36:52.275Z,40.30
2019-03-05T00:37:23.489Z,38.40
2019-03-05T00:37:54.707Z,38.42
2019-03-05T00:38:25.927Z,38.55
2019-03-05T00:38:57.092Z,39.20
2019-03-05T00:39:28.257Z,37.38
2019-03-05T00:39:59.419Z,38.40
2019-03-05T00:40:30.592Z,38.70
2019-03-05T00:41:01.741Z,37.70
2019-03-05T00:41:32.949Z,38.58
2019-03-05T00:42:04.106Z,38.13
2019-03-05T00:42:35.336Z,43.23
2019-03-05T00:43:06.501Z,40.92
2019-03-05T00:43:37.665Z,43.25
2019-03-05T00:44:08.900Z,41.95
2019-03-05T00:44:40.144Z,41.80
2019-03-05T00:45:11.387Z,41.40
2019-03-05T00:45:42.622Z,41.92
2019-03-05T00:46:13.912Z,41.20
2019-03-05T00:46:45.134Z,41.42
2019-03-05T00:47:16.368Z,41.85
2019-03-05T00:47:47.619Z,40.80
2019-03-05T00:48:18.864Z,40.35
2019-03-05T00:48:50.136Z,41.42
2019-03-05T00:49:21.394Z,41.73
2019-03-05T00:49:52.621Z,41.13
2019-03-05T00:50:23.869Z,38.45
2019-03-05T00:50:55.113Z,40.67
2019-03-05T00:51:26.361Z,40.92
2019-03-05T00:51:57.591Z,41.33
2019-03-05T00:52:28.819Z,42.10
2019-03-05T00:53:00.069Z,43.63
2019-03-05T00:53:31.310Z,43.42
2019-03-05T00:54:02.556Z,44.60
2019-03-05T00:54:33.740Z,47.62
2019-03-05T00:55:04.961Z,49.60
2019-03-05T00:55:36.225Z,47.43
2019-03-05T00:56:07.441Z,53.45
2019-03-05T00:56:38.662Z,50.88
2019-03-05T00:57:09.890Z,63.33
2019-03-05T00:57:41.151Z,63.13
2019-03-05T00:58:12.381Z,64.62
2019-03-05T00:58:43.642Z,67.30
2019-03-05T00:59:14.885Z,65.65
2019-03-05T00:59:46.103Z,65.20
2019-03-05T01:00:17.391Z,63.90
2019-03-05T01:00:48.654Z,60.90
2019-03-05T01:01:19.877Z,60.83
2019-03-05T01:01:51.102Z,60.78
2019-03-05T01:02:22.332Z,59.75
2019-03-05T01:02:53.602Z,57.65
2019-03-05T01:03:24.798Z,56.15
2019-03-05T01:03:56.014Z,57.83
2019-03-05T01:04:27.246Z,57.35
2019-03-05T01:04:58.519Z,52.30
2019-03-05T01:05:29.712Z,57.13
2019-03-05T01:06:00.937Z,63.48
2019-03-05T01:06:32.203Z,63.55
2019-03-05T01:07:03.445Z,62.10
2019-03-05T01:07:34.660Z,61.60
2019-03-05T01:08:08.343Z,61.73
2019-03-05T01:08:39.511Z,57.95
2019-03-05T01:09:10.772Z,62.38
2019-03-05T01:09:41.928Z,60.40
2019-03-05T01:10:13.109Z,62.00
2019-03-05T01:10:44.269Z,65.08
2019-03-05T01:11:15.500Z,64.60
2019-03-05T01:11:46.673Z,62.03
2019-03-05T01:12:17.831Z,60.35
2019-03-05T01:12:49.049Z,60.67
2019-03-05T01:13:20.271Z,64.32
2019-03-05T01:13:51.492Z,65.42
2019-03-05T01:14:22.696Z,63.10
2019-03-05T01:14:53.909Z,61.80
2019-03-05T01:15:25.119Z,58.15
2019-03-05T01:15:56.325Z,59.95
2019-03-05T01:16:27.556Z,59.95
2019-03-05T01:16:58.761Z,58.68
2019-03-05T01:17:29.965Z,58.25
2019-03-05T01:18:01.199Z,58.20
2019-03-05T01:18:32.403Z,55.50
2019-03-05T01:19:03.669Z,56.70
2019-03-05T01:19:34.875Z,54.85
2019-03-05T01:20:06.109Z,55.45
2019-03-05T01:20:37.329Z,51.28
2019-03-05T01:21:08.600Z,52.80
2019-03-05T01:21:39.792Z,53.35
2019-03-05T01:22:10.999Z,50.83
2019-03-05T01:22:42.239Z,50.23
2019-03-05T01:23:13.480Z,49.50
2019-03-05T01:23:44.672Z,49.85
2019-03-05T01:24:15.877Z,49.40
2019-03-05T01:24:47.084Z,47.70
2019-03-05T01:25:18.287Z,50.33
2019-03-05T01:25:49.536Z,52.88
2019-03-05T01:26:20.760Z,51.58
2019-03-05T01:26:51.972Z,52.27
2019-03-05T01:27:23.183Z,48.58
2019-03-05T01:27:54.394Z,50.58
2019-03-05T01:28:25.590Z,47.13
2019-03-05T01:28:56.870Z,41.80
2019-03-05T01:29:28.078Z,44.42
2019-03-05T01:29:59.295Z,43.98
2019-03-05T01:30:31.640Z,44.20
2019-03-05T01:31:02.866Z,46.37
2019-03-05T01:31:34.077Z,47.95
2019-03-05T01:32:05.296Z,48.33
2019-03-05T01:32:36.500Z,47.50
2019-03-05T01:33:07.740Z,51.05
2019-03-05T01:33:38.952Z,45.98
2019-03-05T01:34:10.218Z,42.55
2019-03-05T01:34:41.398Z,38.80
2019-03-05T01:35:12.602Z,38.40
2019-03-05T01:35:43.807Z,40.23
2019-03-05T01:36:15.010Z,39.88
2019-03-05T01:36:46.226Z,41.37
2019-03-05T01:37:17.448Z,39.65
2019-03-05T01:37:48.673Z,37.90
2019-03-05T01:38:19.958Z,43.08
2019-03-05T01:38:51.168Z,44.05
2019-03-05T01:39:22.371Z,47.62
2019-03-05T01:39:53.572Z,52.62
2019-03-05T01:40:24.794Z,53.87
2019-03-05T01:40:56.014Z,50.73
2019-03-05T01:41:27.225Z,52.48
2019-03-05T01:41:58.491Z,47.67
2019-03-05T01:42:29.699Z,49.00
2019-03-05T01:43:00.904Z,49.30
2019-03-05T01:43:32.123Z,44.88
2019-03-05T01:44:03.338Z,41.42
2019-03-05T01:44:34.551Z,42.60
2019-03-05T01:45:05.766Z,42.48
2019-03-05T01:45:36.975Z,41.65
2019-03-05T01:46:08.187Z,42.38
2019-03-05T01:46:39.486Z,40.50
2019-03-05T01:47:10.751Z,40.38
2019-03-05T01:47:41.971Z,38.98
2019-03-05T01:48:13.210Z,42.62
2019-03-05T01:48:44.420Z,41.23
2019-03-05T01:49:15.633Z,39.55
2019-03-05T01:49:46.846Z,40.30
2019-03-05T01:50:18.044Z,39.55
2019-03-05T01:50:49.257Z,38.55
2019-03-05T01:51:20.478Z,38.55
2019-03-05T01:51:51.666Z,38.35
2019-03-05T01:52:22.918Z,40.05
2019-03-05T01:52:54.129Z,41.50
2019-03-05T01:53:25.333Z,41.60
2019-03-05T01:53:56.567Z,39.18
2019-03-05T01:54:27.772Z,40.35
2019-03-05T01:54:58.978Z,41.80
2019-03-05T01:55:30.225Z,40.08
2019-03-05T01:56:01.432Z,41.37
2019-03-05T01:56:32.636Z,41.25
2019-03-05T01:57:03.846Z,40.05
2019-03-05T01:57:35.047Z,40.50
2019-03-05T01:58:06.258Z,40.88
2019-03-05T01:58:37.448Z,41.15
2019-03-05T01:59:08.683Z,43.00
2019-03-05T01:59:39.872Z,43.52
2019-03-05T02:00:11.946Z,40.45
2019-03-05T02:00:43.324Z,40.50
2019-03-05T02:01:14.606Z,41.02
2019-03-05T02:01:45.813Z,42.78
2019-03-05T02:02:17.025Z,41.85
2019-03-05T02:02:48.225Z,42.35
2019-03-05T02:03:19.444Z,41.98
2019-03-05T02:03:50.712Z,41.45
2019-03-05T02:04:21.910Z,41.55
2019-03-05T02:04:53.130Z,41.50
2019-03-05T02:05:24.372Z,40.15
2019-03-05T02:05:55.584Z,40.65
2019-03-05T02:06:26.795Z,41.28
2019-03-05T02:06:58.044Z,41.63
2019-03-05T02:07:29.284Z,40.78
2019-03-05T02:08:00.509Z,41.85
2019-03-05T02:08:31.719Z,41.92
2019-03-05T02:09:02.907Z,42.43
2019-03-05T02:09:34.193Z,43.00
2019-03-05T02:10:05.402Z,42.67
2019-03-05T02:10:36.608Z,45.00
2019-03-05T02:11:07.833Z,45.20
2019-03-05T02:11:39.040Z,43.90
2019-03-05T02:12:10.245Z,44.53
2019-03-05T02:12:41.460Z,43.10
2019-03-05T02:13:12.673Z,43.80
2019-03-05T02:13:43.950Z,44.13
2019-03-05T02:14:15.195Z,45.75
2019-03-05T02:14:46.412Z,43.58
2019-03-05T02:15:17.620Z,42.98
2019-03-05T02:15:48.820Z,43.58
2019-03-05T02:16:20.023Z,41.20
2019-03-05T02:16:51.233Z,43.17
2019-03-05T02:17:22.427Z,42.00
2019-03-05T02:17:53.635Z,43.20
2019-03-05T02:18:24.842Z,44.38
2019-03-05T02:18:56.148Z,42.48
2019-03-05T02:19:27.410Z,41.90
2019-03-05T02:19:58.626Z,42.90
2019-03-05T02:20:29.844Z,43.05
2019-03-05T02:21:01.057Z,44.48
2019-03-05T02:21:32.318Z,41.98
2019-03-05T02:22:03.529Z,43.38
2019-03-05T02:22:34.739Z,42.15
2019-03-05T02:23:05.926Z,43.08
2019-03-05T02:23:37.140Z,43.60
2019-03-05T02:24:08.371Z,42.58
2019-03-05T02:24:39.566Z,43.58
2019-03-05T02:25:10.788Z,42.67
2019-03-05T02:25:41.987Z,43.52
2019-03-05T02:26:13.187Z,43.35
2019-03-05T02:26:44.414Z,43.38
2019-03-05T02:27:15.594Z,42.40
2019-03-05T02:27:46.818Z,43.90
2019-03-05T02:28:18.022Z,43.90
2019-03-05T02:28:49.214Z,42.83
2019-03-05T02:29:20.517Z,42.25
2019-03-05T02:29:51.734Z,43.08
2019-03-05T02:30:22.942Z,40.70
2019-03-05T02:30:54.264Z,43.52
2019-03-05T02:31:25.469Z,42.53
2019-03-05T02:31:56.713Z,45.75
2019-03-05T02:32:27.916Z,44.75
2019-03-05T02:32:59.128Z,43.25
2019-03-05T02:33:30.343Z,43.50
2019-03-05T02:34:01.579Z,43.20
2019-03-05T02:34:32.822Z,43.50
2019-03-05T02:35:04.046Z,41.70
2019-03-05T02:35:35.226Z,40.12
2019-03-05T02:36:06.473Z,40.80
2019-03-05T02:36:38.747Z,38.25
2019-03-05T02:37:09.948Z,38.88
2019-03-05T02:37:41.143Z,39.98
2019-03-05T02:38:12.347Z,38.17
2019-03-05T02:38:43.561Z,36.68
2019-03-05T02:39:14.787Z,37.73
2019-03-05T02:39:45.995Z,37.50
2019-03-05T02:40:17.191Z,39.35
2019-03-05T02:40:48.429Z,40.80
2019-03-05T02:41:21.463Z,42.62
2019-03-05T02:41:52.678Z,44.10
2019-03-05T02:42:23.884Z,41.88
2019-03-05T02:42:55.097Z,43.73
2019-03-05T02:43:26.306Z,45.55
2019-03-05T02:43:57.552Z,43.05
2019-03-05T02:44:28.766Z,43.78
2019-03-05T02:44:59.975Z,39.13
2019-03-05T02:45:31.709Z,39.60
2019-03-05T02:46:03.059Z,39.45
2019-03-05T02:46:34.307Z,38.90
2019-03-05T02:47:05.521Z,38.67
2019-03-05T02:47:36.740Z,38.73
2019-03-05T02:48:07.950Z,37.93
2019-03-05T02:48:39.162Z,38.90
2019-03-05T02:49:10.417Z,38.05
2019-03-05T02:49:41.634Z,37.23
2019-03-05T02:50:12.844Z,37.67
2019-03-05T02:50:44.059Z,37.40
2019-03-05T02:51:15.270Z,37.20
2019-03-05T02:51:46.523Z,37.95
2019-03-05T02:52:17.805Z,38.05
2019-03-05T02:52:49.012Z,40.10
2019-03-05T02:53:20.218Z,37.42
2019-03-05T02:53:51.430Z,37.20
2019-03-05T02:54:22.639Z,34.92
2019-03-05T02:54:53.839Z,35.40
2019-03-05T02:55:25.067Z,35.17
2019-03-05T02:55:57.311Z,34.83
2019-03-05T02:56:28.486Z,34.23
2019-03-05T02:56:59.713Z,34.53
2019-03-05T02:57:30.963Z,34.35
2019-03-05T02:58:02.175Z,35.38
2019-03-05T02:58:33.406Z,34.23
2019-03-05T02:59:04.614Z,37.40
2019-03-05T02:59:35.830Z,34.35
2019-03-05T03:00:07.051Z,36.98
2019-03-05T03:00:38.259Z,36.40
2019-03-05T03:01:09.520Z,37.13
2019-03-05T03:01:40.729Z,36.58
2019-03-05T03:02:11.955Z,36.17
2019-03-05T03:02:43.134Z,37.30
2019-03-05T03:03:14.350Z,38.05
2019-03-05T03:03:45.579Z,37.90
2019-03-05T03:04:16.782Z,38.05
2019-03-05T03:04:48.001Z,37.23
2019-03-05T03:05:19.215Z,36.83
2019-03-05T03:05:50.426Z,37.50
2019-03-05T03:06:21.688Z,36.30
2019-03-05T03:06:52.901Z,34.67
2019-03-05T03:07:24.132Z,36.77
2019-03-05T03:07:55.313Z,36.05
2019-03-05T03:08:26.525Z,36.55
2019-03-05T03:08:57.737Z,37.40
2019-03-05T03:09:28.955Z,39.03
2019-03-05T03:10:00.199Z,38.50
2019-03-05T03:10:31.542Z,38.00
2019-03-05T03:11:02.752Z,38.50
2019-03-05T03:11:34.011Z,37.80
2019-03-05T03:12:05.229Z,38.40
2019-03-05T03:12:36.416Z,37.93
2019-03-05T03:13:07.648Z,38.90
2019-03-05T03:13:38.848Z,36.93
2019-03-05T03:14:10.052Z,38.28
2019-03-05T03:14:41.268Z,37.25
2019-03-05T03:15:12.491Z,37.05
2019-03-05T03:15:43.745Z,38.95
2019-03-05T03:16:14.968Z,39.48
2019-03-05T03:16:46.176Z,41.00
2019-03-05T03:17:17.393Z,40.78
2019-03-05T03:17:48.610Z,41.02
2019-03-05T03:18:19.813Z,39.35
2019-03-05T03:18:51.088Z,39.33
2019-03-05T03:19:22.297Z,39.80
2019-03-05T03:19:53.505Z,42.17
2019-03-05T03:20:24.729Z,38.67
2019-03-05T03:20:55.960Z,38.20
2019-03-05T03:21:27.218Z,38.08
2019-03-05T03:21:58.440Z,37.95
2019-03-05T03:22:29.667Z,37.83
2019-03-05T03:23:00.864Z,37.08
2019-03-05T03:23:32.078Z,38.13
2019-03-05T03:24:03.283Z,39.08
2019-03-05T03:24:34.505Z,39.53
2019-03-05T03:25:05.723Z,41.42
2019-03-05T03:25:36.956Z,40.70
2019-03-05T03:26:08.161Z,38.13
2019-03-05T03:26:39.401Z,38.53
2019-03-05T03:27:10.665Z,38.85
2019-03-05T03:27:41.880Z,38.35
2019-03-05T03:28:13.102Z,36.95
2019-03-05T03:28:44.344Z,35.58
2019-03-05T03:29:15.544Z,36.05
2019-03-05T03:29:46.776Z,34.60
2019-03-05T03:30:18.010Z,37.05
2019-03-05T03:30:49.200Z,36.55
2019-03-05T03:31:20.416Z,37.30
2019-03-05T03:31:51.632Z,36.05
2019-03-05T03:32:22.835Z,37.65
2019-03-05T03:32:54.050Z,35.68
2019-03-05T03:33:25.348Z,37.38
2019-03-05T03:33:56.552Z,35.75
2019-03-05T03:34:27.810Z,36.95
2019-03-05T03:34:59.261Z,36.83
2019-03-05T03:35:30.539Z,37.58
2019-03-05T03:36:01.757Z,36.13
2019-03-05T03:36:33.087Z,35.95
2019-03-05T03:37:04.311Z,37.10
2019-03-05T03:37:35.545Z,38.15
2019-03-05T03:38:06.751Z,36.75
2019-03-05T03:38:37.973Z,38.60
2019-03-05T03:39:09.332Z,37.73
2019-03-05T03:39:40.545Z,33.65
2019-03-05T03:40:11.731Z,34.50
2019-03-05T03:40:42.937Z,34.45
2019-03-05T03:41:14.153Z,34.18
2019-03-05T03:41:45.395Z,35.80
2019-03-05T03:42:16.671Z,36.55
2019-03-05T03:42:47.897Z,38.02
2019-03-05T03:43:19.097Z,37.30
2019-03-05T03:43:50.293Z,37.83
2019-03-05T03:44:21.504Z,37.28
2019-03-05T03:44:52.716Z,37.40
2019-03-05T03:45:23.918Z,36.45
2019-03-05T03:45:55.153Z,35.43
2019-03-05T03:46:26.403Z,33.80
2019-03-05T03:46:57.611Z,34.85
2019-03-05T03:47:28.832Z,34.48
2019-03-05T03:48:00.034Z,35.08
2019-03-05T03:48:31.281Z,35.25
2019-03-05T03:49:02.482Z,35.13
2019-03-05T03:49:33.712Z,35.15
2019-03-05T03:50:04.906Z,35.50
2019-03-05T03:50:36.169Z,34.73
2019-03-05T03:51:07.376Z,38.05
2019-03-05T03:51:38.592Z,35.65
2019-03-05T03:52:09.809Z,35.55
2019-03-05T03:52:41.021Z,37.40
2019-03-05T03:53:12.280Z,36.75
2019-03-05T03:53:43.479Z,38.55
2019-03-05T03:54:14.709Z,39.38
2019-03-05T03:54:45.908Z,38.60
2019-03-05T03:55:17.119Z,37.70
2019-03-05T03:55:48.324Z,38.25
2019-03-05T03:56:19.533Z,37.28
2019-03-05T03:56:50.765Z,37.75
2019-03-05T03:57:21.950Z,38.28
2019-03-05T03:57:53.161Z,39.65
2019-03-05T03:58:24.396Z,37.80
2019-03-05T03:58:55.629Z,37.50
2019-03-05T03:59:26.819Z,38.65
2019-03-05T03:59:58.018Z,38.00
2019-03-05T04:00:29.267Z,37.98
2019-03-05T04:01:00.478Z,36.48
2019-03-05T04:01:31.684Z,36.65
2019-03-05T04:02:02.909Z,37.45
2019-03-05T04:02:34.125Z,35.98
2019-03-05T04:03:05.336Z,35.00
2019-03-05T04:03:36.537Z,38.13
2019-03-05T04:04:07.772Z,38.13
2019-03-05T04:04:38.986Z,36.68
2019-03-05T04:05:10.224Z,36.95
2019-03-05T04:05:41.402Z,37.33
2019-03-05T04:06:12.604Z,35.40
2019-03-05T04:06:43.810Z,37.48
2019-03-05T04:07:15.033Z,38.15
2019-03-05T04:07:46.255Z,37.83
2019-03-05T04:08:17.473Z,40.08
2019-03-05T04:08:48.739Z,40.28
2019-03-05T04:09:19.953Z,39.03
2019-03-05T04:09:51.333Z,39.00
2019-03-05T04:10:22.556Z,40.45
2019-03-05T04:10:53.762Z,37.25
2019-03-05T04:11:24.972Z,36.95
2019-03-05T04:11:58.620Z,40.63
2019-03-05T04:12:29.847Z,38.63
2019-03-05T04:13:01.062Z,41.00
2019-03-05T04:13:32.299Z,41.05
2019-03-05T04:14:03.517Z,38.23
2019-03-05T04:14:34.708Z,41.83
2019-03-05T04:15:05.925Z,38.78
2019-03-05T04:15:37.118Z,38.13
2019-03-05T04:16:08.320Z,38.90
2019-03-05T04:16:39.530Z,40.65
2019-03-05T04:17:10.762Z,41.23
2019-03-05T04:17:41.977Z,40.92
2019-03-05T04:18:13.230Z,39.42
2019-03-05T04:18:44.507Z,41.05
2019-03-05T04:19:15.700Z,41.00
2019-03-05T04:19:46.919Z,39.73
2019-03-05T04:20:18.123Z,39.23
2019-03-05T04:20:49.309Z,40.98
2019-03-05T04:21:20.519Z,39.65
2019-03-05T04:21:51.811Z,40.38
2019-03-05T04:22:23.031Z,38.78
2019-03-05T04:22:54.288Z,39.45
2019-03-05T04:23:25.507Z,38.67
2019-03-05T04:23:56.780Z,39.65
2019-03-05T04:24:27.992Z,38.00
2019-03-05T04:24:59.193Z,38.38
2019-03-05T04:25:30.400Z,38.28
2019-03-05T04:26:01.647Z,39.25
2019-03-05T04:26:32.906Z,39.00
2019-03-05T04:27:04.119Z,39.27
2019-03-05T04:27:35.326Z,39.75
2019-03-05T04:28:06.538Z,38.23
2019-03-05T04:28:37.745Z,39.08
2019-03-05T04:29:09.101Z,40.23
2019-03-05T04:29:40.311Z,37.08
2019-03-05T04:30:11.522Z,38.70
2019-03-05T04:30:42.723Z,35.98
2019-03-05T04:31:13.956Z,35.45
2019-03-05T04:31:45.200Z,33.95
2019-03-05T04:32:16.400Z,35.10
2019-03-05T04:32:47.619Z,35.68
2019-03-05T04:33:18.828Z,36.63
2019-03-05T04:33:50.038Z,34.80
2019-03-05T04:34:21.251Z,33.85
2019-03-05T04:34:52.479Z,35.15
2019-03-05T04:35:23.732Z,34.60
2019-03-05T04:35:54.931Z,33.48
2019-03-05T04:36:26.186Z,33.58
2019-03-05T04:36:57.409Z,34.33
2019-03-05T04:37:28.634Z,33.67
2019-03-05T04:37:59.836Z,33.15
2019-03-05T04:38:31.079Z,34.65
2019-03-05T04:39:02.284Z,35.00
2019-03-05T04:39:33.506Z,35.20
2019-03-05T04:40:04.762Z,34.35
2019-03-05T04:40:35.978Z,34.33
2019-03-05T04:41:07.191Z,33.63
2019-03-05T04:41:38.416Z,35.80
2019-03-05T04:42:09.636Z,36.17
2019-03-05T04:42:40.887Z,33.85
2019-03-05T04:43:12.088Z,34.92
2019-03-05T04:43:43.302Z,34.10
2019-03-05T04:44:14.533Z,33.73
2019-03-05T04:44:45.735Z,33.80
2019-03-05T04:45:16.952Z,34.43
2019-03-05T04:45:48.187Z,34.65
2019-03-05T04:46:19.421Z,34.13
2019-03-05T04:46:50.674Z,35.92
2019-03-05T04:47:21.874Z,35.10
2019-03-05T04:47:53.083Z,36.48
2019-03-05T04:48:24.386Z,35.33
2019-03-05T04:48:55.609Z,35.60
2019-03-05T04:49:26.826Z,34.75
2019-03-05T04:49:58.021Z,37.45
2019-03-05T04:50:29.231Z,36.28
2019-03-05T04:51:00.448Z,36.20
2019-03-05T04:51:31.654Z,34.85
2019-03-05T04:52:02.905Z,36.80
2019-03-05T04:52:34.115Z,38.10
2019-03-05T04:53:05.340Z,39.63
2019-03-05T04:53:36.531Z,39.80
2019-03-05T04:54:07.765Z,39.95
2019-03-05T04:54:38.971Z,37.93
2019-03-05T04:55:10.187Z,39.78
2019-03-05T04:55:41.394Z,38.65
2019-03-05T04:56:12.610Z,38.60
2019-03-05T04:56:43.859Z,37.50
2019-03-05T04:57:15.188Z,36.90
2019-03-05T04:57:46.385Z,37.63
2019-03-05T04:58:17.597Z,36.53
2019-03-05T04:58:48.822Z,37.42
2019-03-05T04:59:20.029Z,36.70
2019-03-05T04:59:51.233Z,36.95
2019-03-05T05:00:22.456Z,37.13
2019-03-05T05:00:53.694Z,38.28
2019-03-05T05:01:24.920Z,37.78
2019-03-05T05:01:56.165Z,38.58
2019-03-05T05:02:27.458Z,38.88
2019-03-05T05:02:58.683Z,38.40
2019-03-05T05:03:29.891Z,37.60
2019-03-05T05:04:01.113Z,37.17
2019-03-05T05:04:32.380Z,35.98
2019-03-05T05:05:03.606Z,36.15
2019-03-05T05:05:34.819Z,37.98
2019-03-05T05:06:06.092Z,37.95
2019-03-05T05:06:37.301Z,37.20
2019-03-05T05:07:08.580Z,39.15
2019-03-05T05:07:40.109Z,38.78
2019-03-05T05:08:11.318Z,41.45
2019-03-05T05:08:42.685Z,39.78
2019-03-05T05:09:13.923Z,36.03
2019-03-05T05:09:45.177Z,36.65
2019-03-05T05:10:16.399Z,38.20
2019-03-05T05:10:47.622Z,37.98
2019-03-05T05:11:18.860Z,36.90
2019-03-05T05:11:50.113Z,36.03
2019-03-05T05:12:21.335Z,36.05
2019-03-05T05:12:52.547Z,35.80
2019-03-05T05:13:23.759Z,36.58
2019-03-05T05:13:54.980Z,38.80
2019-03-05T05:14:26.206Z,36.98
2019-03-05T05:14:57.422Z,36.53
2019-03-05T05:15:28.641Z,36.77
2019-03-05T05:15:59.835Z,36.65
2019-03-05T05:16:31.025Z,36.17
2019-03-05T05:17:02.254Z,35.63
2019-03-05T05:17:33.502Z,35.20
2019-03-05T05:18:04.702Z,34.78
2019-03-05T05:18:35.955Z,35.23
2019-03-05T05:19:07.171Z,36.10
2019-03-05T05:19:38.413Z,35.08
2019-03-05T05:20:09.650Z,35.63
2019-03-05T05:20:40.846Z,36.28
2019-03-05T05:21:12.054Z,35.68
2019-03-05T05:21:43.251Z,38.25
2019-03-05T05:22:14.477Z,35.55
2019-03-05T05:22:45.684Z,37.33
2019-03-05T05:23:16.896Z,35.10
2019-03-05T05:23:48.154Z,35.38
2019-03-05T05:24:19.381Z,37.30
2019-03-05T05:24:50.646Z,38.17
2019-03-05T05:25:21.852Z,36.28
2019-03-05T05:25:53.072Z,38.53
2019-03-05T05:26:24.249Z,38.05
2019-03-05T05:26:55.504Z,42.53
2019-03-05T05:27:26.700Z,38.05
2019-03-05T05:27:57.916Z,36.48
2019-03-05T05:28:29.154Z,38.83
2019-03-05T05:29:00.401Z,40.08
2019-03-05T05:29:31.602Z,38.53
2019-03-05T05:30:02.826Z,36.50
2019-03-05T05:30:34.052Z,36.85
2019-03-05T05:31:05.303Z,36.75
2019-03-05T05:31:36.513Z,35.33
2019-03-05T05:32:07.734Z,34.10
2019-03-05T05:32:38.958Z,33.15
2019-03-05T05:33:10.170Z,33.23
2019-03-05T05:33:41.371Z,33.65
2019-03-05T05:34:12.584Z,34.10
2019-03-05T05:34:43.791Z,33.78
2019-03-05T05:35:15.078Z,34.83
2019-03-05T05:35:46.293Z,33.60
2019-03-05T05:36:17.495Z,35.13
2019-03-05T05:36:48.713Z,32.75
2019-03-05T05:37:21.818Z,32.00
2019-03-05T05:37:52.998Z,31.55
2019-03-05T05:38:24.220Z,30.62
2019-03-05T05:38:55.440Z,31.90
2019-03-05T05:39:26.660Z,31.93
2019-03-05T05:39:57.868Z,33.00
2019-03-05T05:40:29.114Z,32.83
2019-03-05T05:41:00.317Z,32.88
2019-03-05T05:41:31.562Z,31.70
2019-03-05T05:42:02.805Z,31.75
2019-03-05T05:42:34.057Z,33.40
2019-03-05T05:43:05.311Z,31.42
2019-03-05T05:43:36.519Z,33.13
2019-03-05T05:44:07.717Z,32.23
2019-03-05T05:44:38.966Z,33.25
2019-03-05T05:45:10.177Z,32.50
2019-03-05T05:45:41.388Z,31.93
2019-03-05T05:46:12.612Z,33.78
2019-03-05T05:46:43.875Z,33.33
2019-03-05T05:47:15.071Z,31.12
2019-03-05T05:47:46.264Z,32.13
2019-03-05T05:48:17.502Z,31.57
2019-03-05T05:48:48.749Z,32.05
2019-03-05T05:49:19.977Z,33.45
2019-03-05T05:49:51.198Z,33.65
2019-03-05T05:50:22.404Z,34.45
2019-03-05T05:50:53.609Z,34.53
2019-03-05T05:51:24.862Z,32.38
2019-03-05T05:51:56.078Z,31.57
2019-03-05T05:52:27.287Z,30.48
2019-03-05T05:52:58.481Z,30.72
2019-03-05T05:53:29.692Z,30.70
2019-03-05T05:54:00.892Z,30.95
2019-03-05T05:54:32.096Z,31.07
2019-03-05T05:55:03.404Z,31.45
2019-03-05T05:55:34.587Z,30.97
2019-03-05T05:56:05.838Z,32.45
2019-03-05T05:56:37.035Z,32.95
2019-03-05T05:57:08.261Z,31.35
2019-03-05T05:57:39.470Z,33.38
2019-03-05T05:58:10.686Z,32.95
2019-03-05T05:58:41.896Z,30.92
2019-03-05T05:59:13.140Z,30.48
2019-03-05T05:59:44.379Z,30.92
2019-03-05T06:00:15.637Z,30.97
2019-03-05T06:00:46.833Z,30.75
2019-03-05T06:01:18.045Z,31.65
2019-03-05T06:01:49.293Z,33.23
2019-03-05T06:02:20.546Z,33.45
2019-03-05T06:02:51.767Z,31.68
2019-03-05T06:03:23.005Z,31.95
2019-03-05T06:03:54.241Z,32.48
2019-03-05T06:04:25.469Z,31.82
2019-03-05T06:04:56.707Z,32.08
2019-03-05T06:05:27.912Z,31.60
2019-03-05T06:05:59.155Z,31.95
2019-03-05T06:06:30.373Z,32.20
2019-03-05T06:07:01.575Z,32.80
2019-03-05T06:07:32.776Z,32.23
2019-03-05T06:08:03.994Z,32.90
2019-03-05T06:08:35.283Z,32.23
2019-03-05T06:09:06.496Z,31.27
2019-03-05T06:09:37.767Z,30.92
2019-03-05T06:10:08.957Z,32.35
2019-03-05T06:10:40.169Z,31.50
2019-03-05T06:11:11.436Z,32.88
2019-03-05T06:11:42.630Z,31.65
2019-03-05T06:12:13.867Z,31.55
2019-03-05T06:12:45.108Z,31.35
2019-03-05T06:13:16.327Z,32.58
2019-03-05T06:13:47.528Z,31.95
2019-03-05T06:14:18.747Z,32.85
2019-03-05T06:14:49.968Z,33.08
2019-03-05T06:15:21.193Z,33.55
2019-03-05T06:15:52.403Z,31.10
2019-03-05T06:16:23.645Z,31.60
2019-03-05T06:16:54.884Z,31.68
2019-03-05T06:17:26.095Z,32.25
2019-03-05T06:17:57.304Z,32.17
2019-03-05T06:18:28.522Z,32.98
2019-03-05T06:18:59.725Z,30.82
2019-03-05T06:19:30.947Z,31.75
2019-03-05T06:20:02.201Z,30.60
2019-03-05T06:20:33.397Z,32.28
2019-03-05T06:21:04.634Z,32.63
2019-03-05T06:21:35.925Z,32.60
2019-03-05T06:22:07.139Z,31.10
2019-03-05T06:22:38.347Z,33.15
2019-03-05T06:23:09.551Z,31.82
2019-03-05T06:23:40.753Z,31.82
2019-03-05T06:24:11.943Z,32.33
2019-03-05T06:24:43.155Z,32.45
2019-03-05T06:25:14.361Z,33.15
2019-03-05T06:25:45.605Z,31.10
2019-03-05T06:26:16.812Z,31.60
2019-03-05T06:26:48.022Z,33.23
2019-03-05T06:27:19.314Z,31.65
2019-03-05T06:27:50.532Z,31.85
2019-03-05T06:28:21.741Z,32.75
2019-03-05T06:28:52.929Z,32.13
2019-03-05T06:29:24.139Z,32.83
2019-03-05T06:29:55.431Z,33.02
2019-03-05T06:30:26.674Z,32.78
2019-03-05T06:30:57.909Z,32.28
2019-03-05T06:31:29.074Z,32.35
2019-03-05T06:32:00.380Z,29.82
2019-03-05T06:32:31.682Z,30.75
2019-03-05T06:33:02.889Z,33.58
2019-03-05T06:33:34.112Z,32.63
2019-03-05T06:34:07.183Z,32.88
2019-03-05T06:34:38.402Z,30.77
2019-03-05T06:35:09.614Z,31.12
2019-03-05T06:35:40.814Z,33.30
2019-03-05T06:36:12.047Z,31.97
2019-03-05T06:36:43.253Z,30.55
2019-03-05T06:37:14.536Z,30.25
2019-03-05T06:37:45.751Z,31.48
2019-03-05T06:38:16.966Z,30.40
2019-03-05T06:38:48.171Z,30.90
2019-03-05T06:39:19.376Z,30.45
2019-03-05T06:39:50.581Z,31.00
2019-03-05T06:40:21.801Z,30.48
2019-03-05T06:40:52.997Z,31.00
2019-03-05T06:41:24.215Z,33.85
2019-03-05T06:41:55.497Z,31.52
2019-03-05T06:42:26.770Z,30.43